createdAt,value
2023-04-16T00:00:16.692Z,29.66
2023-04-16T00:01:16.714Z,29.65
2023-04-16T00:02:16.792Z,29.65
2023-04-16T00:03:16.916Z,29.64
2023-04-16T00:04:16.807Z,29.66
2023-04-16T00:05:16.797Z,29.65
2023-04-16T00:06:16.817Z,29.65
2023-04-16T00:07:16.829Z,29.65
2023-04-16T00:08:16.857Z,29.68
2023-04-16T00:09:16.909Z,29.62
2023-04-16T00:10:16.944Z,29.63
2023-04-16T00:11:16.997Z,29.68
2023-04-16T00:12:17.034Z,29.66
2023-04-16T00:13:17.099Z,29.65
2023-04-16T00:14:17.139Z,29.66
2023-04-16T00:15:17.198Z,29.68
2023-04-16T00:16:17.294Z,29.70
2023-04-16T00:17:17.321Z,29.71
2023-04-16T00:18:17.378Z,29.65
2023-04-16T00:19:17.439Z,29.66
2023-04-16T00:20:17.494Z,29.64
2023-04-16T00:21:17.554Z,29.67
2023-04-16T00:22:17.618Z,29.71
2023-04-16T00:23:17.694Z,29.66
2023-04-16T00:24:17.744Z,29.63
2023-04-16T00:25:17.806Z,29.69
2023-04-16T00:26:17.868Z,29.63
2023-04-16T00:27:17.937Z,29.66
2023-04-16T00:28:18.001Z,29.66
2023-04-16T00:29:18.105Z,29.65
2023-04-16T00:30:18.143Z,29.70
2023-04-16T00:31:18.243Z,29.63
2023-04-16T00:32:18.292Z,29.63
2023-04-16T00:33:18.326Z,29.66
2023-04-16T00:34:18.403Z,29.62
2023-04-16T00:35:18.466Z,29.66
2023-04-16T00:36:18.527Z,29.63
2023-04-16T00:37:18.591Z,29.68
2023-04-16T00:38:18.660Z,29.65
2023-04-16T00:39:18.698Z,29.63
2023-04-16T00:40:18.760Z,29.65
2023-04-16T00:41:18.829Z,29.65
2023-04-16T00:42:18.888Z,29.63
2023-04-16T00:43:19.710Z,29.63
2023-04-16T00:44:19.024Z,29.66
2023-04-16T00:45:19.078Z,29.65
2023-04-16T00:46:19.158Z,29.64
2023-04-16T00:47:19.170Z,29.66
2023-04-16T00:48:19.214Z,29.65
2023-04-16T00:49:19.259Z,29.67
2023-04-16T00:50:19.289Z,29.70
2023-04-16T00:51:19.331Z,29.69
2023-04-16T00:52:19.355Z,29.65
2023-04-16T00:53:19.441Z,29.63
2023-04-16T00:54:19.477Z,29.70
2023-04-16T00:55:19.544Z,29.62
2023-04-16T00:56:20.571Z,29.70
2023-04-16T00:57:19.660Z,29.62
2023-04-16T00:58:19.734Z,29.65
2023-04-16T00:59:19.801Z,29.65
2023-04-16T01:00:19.897Z,29.66
2023-04-16T01:01:19.978Z,29.63
2023-04-16T01:02:20.004Z,29.63
2023-04-16T01:03:20.253Z,29.63
2023-04-16T01:04:20.154Z,29.64
2023-04-16T01:05:20.123Z,29.67
2023-04-16T01:06:20.182Z,29.66
2023-04-16T01:07:20.226Z,29.65
2023-04-16T01:08:20.274Z,29.67
2023-04-16T01:09:20.356Z,29.66
2023-04-16T01:10:20.402Z,29.65
2023-04-16T01:11:20.448Z,29.65
2023-04-16T01:12:20.514Z,29.63
2023-04-16T01:13:20.567Z,29.66
2023-04-16T01:14:20.617Z,29.62
2023-04-16T01:15:20.662Z,29.63
2023-04-16T01:16:20.728Z,29.65
2023-04-16T01:17:20.765Z,29.66
2023-04-16T01:18:20.775Z,29.63
2023-04-16T01:19:20.848Z,29.62
2023-04-16T01:20:20.864Z,29.60
2023-04-16T01:21:20.902Z,29.64
2023-04-16T01:22:20.943Z,29.63
2023-04-16T01:23:20.989Z,29.60
2023-04-16T01:24:21.029Z,29.60
2023-04-16T01:25:21.074Z,29.58
2023-04-16T01:26:21.128Z,29.59
2023-04-16T01:27:21.182Z,29.62
2023-04-16T01:28:21.223Z,29.63
2023-04-16T01:29:21.268Z,29.66
2023-04-16T01:30:21.311Z,29.58
2023-04-16T01:31:21.396Z,29.62
2023-04-16T01:32:21.439Z,29.66
2023-04-16T01:33:21.547Z,29.62
2023-04-16T01:34:21.515Z,29.63
2023-04-16T01:35:21.564Z,29.61
2023-04-16T01:36:21.596Z,29.66
2023-04-16T01:37:21.645Z,29.62
2023-04-16T01:38:21.678Z,29.63
2023-04-16T01:39:21.742Z,29.67
2023-04-16T01:40:21.808Z,29.60
2023-04-16T01:41:21.869Z,29.61
2023-04-16T01:42:21.933Z,29.60
2023-04-16T01:43:21.980Z,29.62
2023-04-16T01:44:22.044Z,29.62
2023-04-16T01:45:22.092Z,29.60
2023-04-16T01:46:22.208Z,29.62
2023-04-16T01:47:22.243Z,29.63
2023-04-16T01:48:22.270Z,29.59
2023-04-16T01:49:22.322Z,29.57
2023-04-16T01:50:22.359Z,29.60
2023-04-16T01:51:22.418Z,29.57
2023-04-16T01:52:22.486Z,29.62
2023-04-16T01:53:22.564Z,29.56
2023-04-16T01:54:22.621Z,29.56
2023-04-16T01:55:22.697Z,29.58
2023-04-16T01:56:22.819Z,29.55
2023-04-16T01:57:23.474Z,29.62
2023-04-16T01:58:22.835Z,29.57
2023-04-16T01:59:22.881Z,29.60
2023-04-16T02:00:22.927Z,29.57
2023-04-16T02:01:23.183Z,29.63
2023-04-16T02:02:23.159Z,29.55
2023-04-16T02:03:23.316Z,29.64
2023-04-16T02:04:23.174Z,29.60
2023-04-16T02:05:23.265Z,29.64
2023-04-16T02:06:23.301Z,29.63
2023-04-16T02:07:23.369Z,29.64
2023-04-16T02:08:23.448Z,29.64
2023-04-16T02:09:23.477Z,29.60
2023-04-16T02:10:24.136Z,29.69
2023-04-16T02:11:23.596Z,29.59
2023-04-16T02:12:23.647Z,29.62
2023-04-16T02:13:23.695Z,29.61
2023-04-16T02:14:23.752Z,29.60
2023-04-16T02:15:23.786Z,29.61
2023-04-16T02:16:23.864Z,29.60
2023-04-16T02:17:23.905Z,29.63
2023-04-16T02:18:23.889Z,29.62
2023-04-16T02:19:23.917Z,29.60
2023-04-16T02:20:23.943Z,29.61
2023-04-16T02:21:23.993Z,29.61
2023-04-16T02:22:23.965Z,29.57
2023-04-16T02:23:24.005Z,29.59
2023-04-16T02:24:24.043Z,29.59
2023-04-16T02:25:24.061Z,29.61
2023-04-16T02:26:24.968Z,29.59
2023-04-16T02:27:24.655Z,29.61
2023-04-16T02:28:24.134Z,29.61
2023-04-16T02:29:24.161Z,29.59
2023-04-16T02:30:24.197Z,29.61
2023-04-16T02:31:24.268Z,29.57
2023-04-16T02:32:24.279Z,29.60
2023-04-16T02:33:24.282Z,29.64
2023-04-16T02:34:24.312Z,29.60
2023-04-16T02:35:24.348Z,29.54
2023-04-16T02:36:24.400Z,29.57
2023-04-16T02:37:24.460Z,29.60
2023-04-16T02:38:24.483Z,29.59
2023-04-16T02:39:24.498Z,29.65
2023-04-16T02:40:24.533Z,29.59
2023-04-16T02:41:24.569Z,29.63
2023-04-16T02:42:24.631Z,29.60
2023-04-16T02:43:24.640Z,29.60
2023-04-16T02:44:24.685Z,29.63
2023-04-16T02:45:24.731Z,29.56
2023-04-16T02:46:24.906Z,29.57
2023-04-16T02:47:24.834Z,29.57
2023-04-16T02:48:25.058Z,29.63
2023-04-16T02:49:24.894Z,29.57
2023-04-16T02:50:24.959Z,29.56
2023-04-16T02:51:25.035Z,29.60
2023-04-16T02:52:25.110Z,29.60
2023-04-16T02:53:25.174Z,29.57
2023-04-16T02:54:25.221Z,29.57
2023-04-16T02:55:25.296Z,29.63
2023-04-16T02:56:25.350Z,29.60
2023-04-16T02:57:25.414Z,29.56
2023-04-16T02:58:25.454Z,29.57
2023-04-16T02:59:25.516Z,29.54
2023-04-16T03:00:25.589Z,29.57
2023-04-16T03:01:25.727Z,29.63
2023-04-16T03:02:25.764Z,29.61
2023-04-16T03:03:25.848Z,29.57
2023-04-16T03:04:25.890Z,29.59
2023-04-16T03:05:25.930Z,29.53
2023-04-16T03:06:26.002Z,29.57
2023-04-16T03:07:26.092Z,29.56
2023-04-16T03:08:26.150Z,29.57
2023-04-16T03:09:26.239Z,29.59
2023-04-16T03:10:26.287Z,29.57
2023-04-16T03:11:26.355Z,29.60
2023-04-16T03:12:26.425Z,29.60
2023-04-16T03:13:27.326Z,29.57
2023-04-16T03:14:26.554Z,29.57
2023-04-16T03:15:26.655Z,29.54
2023-04-16T03:16:26.701Z,29.56
2023-04-16T03:17:26.777Z,29.59
2023-04-16T03:18:26.840Z,29.56
2023-04-16T03:19:26.913Z,29.56
2023-04-16T03:20:26.983Z,29.59
2023-04-16T03:21:27.065Z,29.54
2023-04-16T03:22:27.181Z,29.53
2023-04-16T03:23:27.833Z,29.55
2023-04-16T03:24:27.274Z,29.48
2023-04-16T03:25:27.398Z,29.52
2023-04-16T03:26:27.430Z,29.48
2023-04-16T03:27:27.478Z,29.47
2023-04-16T03:28:27.547Z,29.48
2023-04-16T03:29:27.602Z,29.45
2023-04-16T03:30:27.655Z,29.44
2023-04-16T03:31:27.759Z,29.48
2023-04-16T03:32:27.797Z,29.44
2023-04-16T03:33:27.757Z,29.43
2023-04-16T03:34:27.777Z,29.46
2023-04-16T03:35:27.813Z,29.37
2023-04-16T03:36:27.854Z,29.39
2023-04-16T03:37:27.881Z,29.39
2023-04-16T03:38:27.914Z,29.40
2023-04-16T03:39:27.935Z,29.39
2023-04-16T03:40:27.967Z,29.32
2023-04-16T03:41:28.007Z,29.35
2023-04-16T03:42:28.006Z,29.35
2023-04-16T03:43:28.035Z,29.35
2023-04-16T03:44:28.058Z,29.34
2023-04-16T03:45:28.114Z,29.31
2023-04-16T03:46:28.200Z,29.30
2023-04-16T03:47:28.282Z,29.23
2023-04-16T03:48:28.284Z,29.30
2023-04-16T03:49:28.332Z,29.27
2023-04-16T03:50:28.381Z,29.24
2023-04-16T03:51:28.453Z,29.23
2023-04-16T03:52:28.496Z,29.22
2023-04-16T03:53:28.538Z,29.20
2023-04-16T03:54:28.586Z,29.25
2023-04-16T03:55:28.639Z,29.23
2023-04-16T03:56:28.687Z,29.23
2023-04-16T03:57:29.547Z,29.21
2023-04-16T03:58:28.795Z,29.18
2023-04-16T03:59:28.844Z,29.23
2023-04-16T04:00:28.889Z,29.20
2023-04-16T04:01:28.942Z,29.17
2023-04-16T04:02:29.106Z,29.15
2023-04-16T04:03:29.480Z,29.18
2023-04-16T04:04:29.152Z,29.15
2023-04-16T04:05:29.157Z,29.21
2023-04-16T04:06:30.025Z,29.15
2023-04-16T04:07:29.252Z,29.15
2023-04-16T04:08:29.307Z,29.18
2023-04-16T04:09:29.355Z,29.14
2023-04-16T04:10:29.399Z,29.13
2023-04-16T04:11:29.456Z,29.15
2023-04-16T04:12:29.511Z,29.11
2023-04-16T04:13:29.590Z,29.12
2023-04-16T04:14:29.607Z,29.15
2023-04-16T04:15:29.688Z,29.14
2023-04-16T04:16:29.718Z,29.13
2023-04-16T04:17:29.708Z,29.10
2023-04-16T04:18:29.708Z,29.09
2023-04-16T04:19:29.705Z,29.06
2023-04-16T04:20:29.735Z,29.06
2023-04-16T04:21:29.730Z,29.12
2023-04-16T04:22:29.744Z,29.10
2023-04-16T04:23:29.765Z,29.10
2023-04-16T04:24:29.794Z,29.10
2023-04-16T04:25:29.777Z,29.05
2023-04-16T04:26:29.845Z,29.09
2023-04-16T04:27:29.813Z,29.07
2023-04-16T04:28:29.824Z,29.13
2023-04-16T04:29:29.850Z,29.09
2023-04-16T04:30:29.835Z,29.13
2023-04-16T04:31:29.944Z,29.10
2023-04-16T04:32:29.898Z,29.10
2023-04-16T04:33:29.900Z,29.12
2023-04-16T04:34:29.902Z,29.10
2023-04-16T04:35:29.944Z,29.12
2023-04-16T04:36:29.926Z,29.12
2023-04-16T04:37:30.549Z,29.08
2023-04-16T04:38:29.943Z,29.07
2023-04-16T04:39:29.960Z,29.09
2023-04-16T04:40:29.975Z,29.06
2023-04-16T04:41:30.025Z,29.06
2023-04-16T04:42:30.065Z,29.05
2023-04-16T04:43:30.113Z,29.04
2023-04-16T04:44:30.175Z,29.05
2023-04-16T04:45:31.959Z,29.06
2023-04-16T04:46:30.201Z,29.08
2023-04-16T04:47:30.216Z,29.06
2023-04-16T04:48:30.221Z,29.09
2023-04-16T04:49:30.220Z,29.05
2023-04-16T04:50:30.230Z,29.09
2023-04-16T04:51:30.217Z,29.10
2023-04-16T04:52:30.229Z,29.04
2023-04-16T04:53:30.328Z,29.04
2023-04-16T04:54:30.217Z,29.05
2023-04-16T04:55:30.222Z,29.02
2023-04-16T04:56:30.212Z,29.01
2023-04-16T04:57:30.212Z,29.01
2023-04-16T04:58:30.208Z,29.08
2023-04-16T04:59:30.205Z,29.06
2023-04-16T05:00:30.199Z,29.05
2023-04-16T05:01:30.297Z,29.05
2023-04-16T05:02:30.252Z,28.97
2023-04-16T05:03:30.937Z,29.07
2023-04-16T05:04:30.214Z,29.02
2023-04-16T05:05:30.211Z,29.04
2023-04-16T05:06:30.200Z,29.01
2023-04-16T05:07:30.197Z,29.05
2023-04-16T05:08:30.202Z,29.04
2023-04-16T05:09:30.194Z,28.97
2023-04-16T05:10:30.202Z,29.02
2023-04-16T05:11:30.192Z,29.00
2023-04-16T05:12:30.185Z,29.01
2023-04-16T05:13:30.192Z,29.07
2023-04-16T05:14:30.198Z,29.04
2023-04-16T05:15:30.187Z,29.04
2023-04-16T05:16:30.248Z,29.03
2023-04-16T05:17:30.318Z,28.99
2023-04-16T05:18:30.188Z,29.01
2023-04-16T05:19:30.174Z,28.99
2023-04-16T05:20:30.179Z,29.03
2023-04-16T05:21:30.173Z,29.08
2023-04-16T05:22:30.176Z,29.04
2023-04-16T05:23:30.187Z,29.00
2023-04-16T05:24:30.160Z,29.01
2023-04-16T05:25:30.153Z,28.99
2023-04-16T05:26:30.147Z,29.00
2023-04-16T05:27:30.163Z,29.03
2023-04-16T05:28:30.148Z,29.04
2023-04-16T05:29:30.138Z,29.03
2023-04-16T05:30:30.219Z,28.99
2023-04-16T05:31:30.147Z,29.03
2023-04-16T05:32:30.146Z,29.04
2023-04-16T05:33:30.166Z,29.01
2023-04-16T05:34:30.130Z,29.01
2023-04-16T05:35:30.134Z,28.99
2023-04-16T05:36:30.119Z,29.00
2023-04-16T05:37:30.114Z,28.97
2023-04-16T05:38:30.117Z,29.00
2023-04-16T05:39:30.130Z,28.98
2023-04-16T05:40:30.115Z,29.02
2023-04-16T05:41:30.103Z,28.97
2023-04-16T05:42:30.101Z,29.03
2023-04-16T05:43:30.108Z,29.00
2023-04-16T05:44:30.088Z,29.00
2023-04-16T05:45:30.076Z,28.99
2023-04-16T05:46:30.109Z,29.02
2023-04-16T05:47:30.117Z,29.00
2023-04-16T05:48:30.067Z,28.99
2023-04-16T05:49:30.178Z,28.99
2023-04-16T05:50:30.055Z,28.98
2023-04-16T05:51:30.039Z,28.98
2023-04-16T05:52:30.042Z,29.00
2023-04-16T05:53:30.043Z,28.99
2023-04-16T05:54:30.019Z,28.99
2023-04-16T05:55:30.005Z,29.00
2023-04-16T05:56:29.997Z,29.00
2023-04-16T05:57:30.005Z,28.96
2023-04-16T05:58:30.002Z,29.02
2023-04-16T05:59:30.032Z,29.03
2023-04-16T06:00:30.107Z,29.05
2023-04-16T06:01:30.103Z,29.00
2023-04-16T06:02:30.207Z,28.98
2023-04-16T06:03:30.279Z,29.02
2023-04-16T06:04:30.277Z,29.00
2023-04-16T06:05:30.378Z,29.00
2023-04-16T06:06:30.255Z,29.03
2023-04-16T06:07:30.288Z,29.05
2023-04-16T06:08:30.327Z,29.02
2023-04-16T06:09:30.360Z,28.99
2023-04-16T06:10:30.392Z,28.92
2023-04-16T06:11:30.422Z,28.99
2023-04-16T06:12:30.444Z,28.96
2023-04-16T06:13:30.471Z,29.01
2023-04-16T06:14:30.525Z,28.98
2023-04-16T06:15:30.547Z,28.99
2023-04-16T06:16:30.649Z,28.95
2023-04-16T06:17:30.624Z,28.96
2023-04-16T06:18:30.637Z,28.98
2023-04-16T06:19:30.668Z,28.96
2023-04-16T06:20:30.695Z,28.96
2023-04-16T06:21:30.757Z,28.95
2023-04-16T06:22:30.831Z,28.95
2023-04-16T06:23:30.948Z,28.94
2023-04-16T06:24:30.800Z,29.02
2023-04-16T06:25:30.833Z,28.94
2023-04-16T06:26:30.847Z,28.97
2023-04-16T06:27:30.873Z,28.94
2023-04-16T06:28:30.902Z,28.93
2023-04-16T06:29:40.412Z,28.91
2023-04-16T06:30:30.916Z,28.93
2023-04-16T06:31:30.970Z,28.96
2023-04-16T06:32:30.955Z,28.93
2023-04-16T06:33:30.910Z,28.90
2023-04-16T06:34:30.906Z,28.90
2023-04-16T06:35:30.899Z,28.93
2023-04-16T06:36:30.891Z,28.93
2023-04-16T06:37:30.918Z,28.94
2023-04-16T06:38:30.897Z,28.94
2023-04-16T06:39:30.886Z,28.91
2023-04-16T06:40:30.879Z,28.91
2023-04-16T06:41:30.883Z,28.94
2023-04-16T06:42:30.876Z,28.94
2023-04-16T06:43:30.879Z,28.96
2023-04-16T06:44:30.865Z,28.94
2023-04-16T06:45:30.865Z,28.93
2023-04-16T06:46:30.922Z,28.97
2023-04-16T06:47:30.873Z,28.93
2023-04-16T06:48:31.123Z,28.96
2023-04-16T06:49:30.834Z,28.93
2023-04-16T06:50:30.834Z,28.91
2023-04-16T06:51:30.822Z,28.91
2023-04-16T06:52:30.814Z,28.93
2023-04-16T06:53:30.857Z,28.97
2023-04-16T06:54:31.429Z,28.97
2023-04-16T06:55:30.807Z,28.93
2023-04-16T06:56:30.793Z,28.91
2023-04-16T06:57:30.794Z,28.93
2023-04-16T06:58:30.787Z,28.93
2023-04-16T06:59:30.765Z,28.96
2023-04-16T07:00:30.769Z,28.94
2023-04-16T07:01:30.821Z,28.93
2023-04-16T07:02:30.883Z,28.91
2023-04-16T07:03:30.796Z,28.90
2023-04-16T07:04:30.734Z,28.97
2023-04-16T07:05:30.720Z,28.94
2023-04-16T07:06:30.709Z,28.93
2023-04-16T07:07:30.701Z,28.96
2023-04-16T07:08:30.691Z,28.91
2023-04-16T07:09:30.709Z,28.97
2023-04-16T07:10:31.231Z,28.91
2023-04-16T07:11:31.277Z,28.94
2023-04-16T07:12:30.665Z,28.94
2023-04-16T07:13:30.663Z,29.01
2023-04-16T07:14:31.421Z,28.94
2023-04-16T07:15:30.632Z,28.96
2023-04-16T07:16:30.684Z,28.94
2023-04-16T07:17:30.710Z,28.96
2023-04-16T07:18:30.708Z,28.91
2023-04-16T07:19:30.730Z,28.97
2023-04-16T07:20:31.735Z,28.96
2023-04-16T07:21:30.778Z,28.98
2023-04-16T07:22:30.804Z,28.96
2023-04-16T07:23:30.824Z,28.94
2023-04-16T07:24:30.922Z,28.94
2023-04-16T07:25:30.887Z,28.96
2023-04-16T07:26:30.887Z,28.94
2023-04-16T07:27:30.912Z,28.94
2023-04-16T07:28:30.937Z,28.96
2023-04-16T07:29:30.952Z,28.93
2023-04-16T07:30:30.976Z,28.94
2023-04-16T07:31:31.017Z,28.96
2023-04-16T07:32:31.061Z,28.94
2023-04-16T07:33:31.045Z,28.97
2023-04-16T07:34:31.065Z,28.93
2023-04-16T07:35:31.085Z,28.93
2023-04-16T07:36:31.110Z,28.96
2023-04-16T07:37:31.770Z,28.97
2023-04-16T07:38:31.137Z,28.96
2023-04-16T07:39:31.161Z,28.97
2023-04-16T07:40:31.202Z,28.97
2023-04-16T07:41:31.262Z,28.93
2023-04-16T07:42:31.248Z,28.90
2023-04-16T07:43:31.843Z,28.96
2023-04-16T07:44:31.299Z,28.96
2023-04-16T07:45:31.315Z,28.93
2023-04-16T07:47:30.376Z,28.93
2023-04-16T07:48:31.340Z,28.94
2023-04-16T07:49:31.323Z,28.91
2023-04-16T07:50:31.324Z,28.96
2023-04-16T07:51:31.334Z,28.92
2023-04-16T07:52:31.331Z,28.93
2023-04-16T07:53:31.307Z,28.94
2023-04-16T07:54:31.316Z,28.99
2023-04-16T07:55:31.313Z,28.92
2023-04-16T07:56:31.319Z,28.93
2023-04-16T07:57:31.334Z,28.92
2023-04-16T07:58:31.300Z,28.94
2023-04-16T07:59:31.293Z,28.93
2023-04-16T08:00:31.294Z,28.94
2023-04-16T08:01:31.289Z,28.90
2023-04-16T08:02:31.358Z,28.89
2023-04-16T08:03:31.510Z,28.92
2023-04-16T08:04:31.376Z,28.89
2023-04-16T08:05:31.284Z,28.86
2023-04-16T08:06:31.273Z,28.95
2023-04-16T08:07:32.753Z,28.89
2023-04-16T08:08:31.263Z,28.92
2023-04-16T08:09:31.260Z,28.90
2023-04-16T08:10:31.265Z,28.88
2023-04-16T08:11:31.260Z,28.94
2023-04-16T08:12:31.269Z,28.90
2023-04-16T08:13:33.106Z,28.91
2023-04-16T08:14:31.254Z,28.92
2023-04-16T08:15:31.285Z,28.88
2023-04-16T08:16:31.525Z,28.90
2023-04-16T08:17:31.264Z,28.91
2023-04-16T08:18:31.239Z,28.89
2023-04-16T08:19:31.236Z,28.89
2023-04-16T08:20:31.246Z,28.92
2023-04-16T08:21:31.236Z,28.91
2023-04-16T08:22:31.250Z,28.90
2023-04-16T08:23:31.243Z,28.93
2023-04-16T08:24:31.252Z,28.94
2023-04-16T08:25:31.254Z,28.93
2023-04-16T08:26:31.256Z,28.91
2023-04-16T08:27:31.258Z,28.92
2023-04-16T08:28:31.252Z,28.96
2023-04-16T08:29:31.274Z,28.92
2023-04-16T08:30:31.241Z,28.93
2023-04-16T08:31:31.284Z,28.94
2023-04-16T08:32:31.281Z,28.95
2023-04-16T08:33:31.254Z,28.93
2023-04-16T08:34:31.237Z,28.92
2023-04-16T08:35:31.237Z,28.90
2023-04-16T08:36:31.232Z,28.96
2023-04-16T08:37:31.245Z,28.95
2023-04-16T08:38:31.242Z,28.91
2023-04-16T08:39:31.248Z,28.92
2023-04-16T08:40:31.250Z,28.90
2023-04-16T08:41:31.799Z,28.91
2023-04-16T08:42:31.250Z,28.96
2023-04-16T08:43:31.256Z,28.92
2023-04-16T08:44:31.254Z,28.93
2023-04-16T08:45:31.282Z,28.92
2023-04-16T08:46:31.283Z,28.88
2023-04-16T08:47:31.286Z,28.92
2023-04-16T08:48:31.248Z,28.94
2023-04-16T08:49:31.244Z,28.95
2023-04-16T08:50:31.247Z,28.89
2023-04-16T08:51:31.264Z,28.89
2023-04-16T08:52:31.238Z,28.93
2023-04-16T08:53:31.234Z,28.91
2023-04-16T08:54:31.241Z,28.86
2023-04-16T08:55:31.233Z,28.91
2023-04-16T08:56:31.233Z,28.89
2023-04-16T08:57:31.218Z,28.92
2023-04-16T08:58:31.220Z,28.90
2023-04-16T08:59:31.210Z,28.89
2023-04-16T09:00:31.207Z,28.89
2023-04-16T09:01:31.265Z,28.91
2023-04-16T09:02:31.404Z,28.92
2023-04-16T09:03:32.361Z,28.91
2023-04-16T09:04:31.313Z,28.91
2023-04-16T09:05:31.184Z,28.91
2023-04-16T09:06:31.185Z,28.89
2023-04-16T09:07:31.187Z,28.92
2023-04-16T09:08:31.182Z,28.87
2023-04-16T09:09:32.303Z,28.91
2023-04-16T09:10:31.185Z,28.89
2023-04-16T09:11:31.174Z,28.95
2023-04-16T09:12:31.170Z,28.88
2023-04-16T09:13:31.170Z,28.88
2023-04-16T09:14:31.169Z,28.92
2023-04-16T09:15:32.443Z,28.89
2023-04-16T09:16:31.208Z,28.89
2023-04-16T09:17:31.194Z,28.87
2023-04-16T09:18:31.158Z,28.89
2023-04-16T09:19:31.147Z,28.84
2023-04-16T09:20:31.161Z,28.92
2023-04-16T09:21:31.937Z,28.96
2023-04-16T09:22:31.153Z,28.94
2023-04-16T09:23:31.157Z,28.92
2023-04-16T09:24:31.135Z,28.87
2023-04-16T09:25:31.146Z,28.88
2023-04-16T09:26:31.163Z,28.88
2023-04-16T09:27:31.142Z,28.90
2023-04-16T09:28:31.138Z,28.88
2023-04-16T09:29:31.136Z,28.85
2023-04-16T09:30:31.132Z,28.91
2023-04-16T09:31:31.164Z,28.87
2023-04-16T09:32:31.165Z,28.91
2023-04-16T09:33:32.381Z,28.88
2023-04-16T09:34:31.128Z,28.85
2023-04-16T09:35:31.121Z,28.87
2023-04-16T09:36:31.129Z,28.91
2023-04-16T09:37:31.122Z,28.87
2023-04-16T09:38:31.124Z,28.90
2023-04-16T09:39:31.125Z,28.88
2023-04-16T09:40:31.135Z,28.88
2023-04-16T09:41:31.140Z,28.88
2023-04-16T09:42:31.154Z,28.84
2023-04-16T09:43:31.153Z,28.91
2023-04-16T09:44:31.146Z,28.85
2023-04-16T09:45:31.190Z,28.89
2023-04-16T09:46:31.277Z,28.85
2023-04-16T09:47:31.203Z,28.84
2023-04-16T09:48:31.151Z,28.88
2023-04-16T09:49:31.210Z,28.87
2023-04-16T09:50:31.159Z,28.84
2023-04-16T09:51:31.166Z,28.89
2023-04-16T09:52:31.165Z,28.89
2023-04-16T09:53:31.179Z,28.91
2023-04-16T09:54:31.166Z,28.89
2023-04-16T09:55:31.739Z,28.84
2023-04-16T09:56:31.180Z,28.88
2023-04-16T09:57:31.179Z,28.91
2023-04-16T09:58:31.177Z,28.89
2023-04-16T09:59:31.194Z,28.89
2023-04-16T10:00:31.177Z,28.91
2023-04-16T10:01:31.232Z,28.88
2023-04-16T10:02:31.268Z,28.88
2023-04-16T10:03:31.353Z,28.87
2023-04-16T10:04:31.223Z,28.85
2023-04-16T10:05:31.196Z,28.92
2023-04-16T10:06:31.188Z,28.91
2023-04-16T10:07:31.187Z,28.81
2023-04-16T10:08:31.207Z,28.87
2023-04-16T10:09:31.426Z,28.85
2023-04-16T10:10:31.175Z,28.87
2023-04-16T10:11:31.172Z,28.85
2023-04-16T10:12:31.579Z,28.84
2023-04-16T10:13:31.255Z,28.83
2023-04-16T10:14:31.180Z,28.85
2023-04-16T10:15:31.180Z,28.84
2023-04-16T10:16:31.206Z,28.90
2023-04-16T10:17:31.208Z,28.84
2023-04-16T10:18:31.181Z,28.84
2023-04-16T10:19:31.187Z,28.83
2023-04-16T10:20:31.185Z,28.81
2023-04-16T10:21:31.202Z,28.81
2023-04-16T10:22:31.220Z,28.86
2023-04-16T10:23:31.292Z,28.83
2023-04-16T10:24:31.308Z,28.83
2023-04-16T10:25:31.359Z,28.83
2023-04-16T10:26:31.404Z,28.84
2023-04-16T10:27:31.462Z,28.83
2023-04-16T10:28:31.516Z,28.80
2023-04-16T10:29:31.579Z,28.81
2023-04-16T10:30:31.604Z,28.84
2023-04-16T10:31:31.708Z,28.84
2023-04-16T10:32:31.738Z,28.79
2023-04-16T10:33:31.767Z,28.80
2023-04-16T10:34:31.837Z,28.84
2023-04-16T10:35:31.884Z,28.80
2023-04-16T10:36:31.925Z,28.81
2023-04-16T10:37:32.024Z,28.80
2023-04-16T10:38:32.961Z,28.84
2023-04-16T10:39:32.093Z,28.81
2023-04-16T10:40:32.157Z,28.83
2023-04-16T10:41:33.145Z,28.83
2023-04-16T10:42:32.309Z,28.83
2023-04-16T10:43:32.395Z,28.84
2023-04-16T10:44:33.322Z,28.83
2023-04-16T10:45:32.524Z,28.80
2023-04-16T10:46:32.672Z,28.88
2023-04-16T10:47:32.703Z,28.83
2023-04-16T10:48:46.527Z,28.91
2023-04-16T10:49:32.722Z,28.86
2023-04-16T10:50:32.736Z,28.88
2023-04-16T10:51:32.727Z,28.88
2023-04-16T10:52:32.718Z,28.85
2023-04-16T10:53:32.750Z,28.90
2023-04-16T10:54:32.707Z,28.86
2023-04-16T10:55:32.708Z,28.87
2023-04-16T10:56:32.714Z,28.88
2023-04-16T10:57:32.989Z,28.84
2023-04-16T10:58:32.707Z,28.87
2023-04-16T10:59:32.694Z,28.87
2023-04-16T11:00:32.698Z,28.87
2023-04-16T11:01:32.790Z,28.86
2023-04-16T11:02:32.907Z,28.83
2023-04-16T11:03:32.945Z,28.86
2023-04-16T11:04:32.735Z,28.88
2023-04-16T11:05:32.704Z,28.88
2023-04-16T11:06:32.726Z,28.87
2023-04-16T11:07:32.708Z,28.92
2023-04-16T11:08:34.965Z,28.87
2023-04-16T11:09:32.728Z,28.91
2023-04-16T11:10:32.694Z,28.94
2023-04-16T11:11:32.690Z,28.91
2023-04-16T11:12:32.702Z,28.90
2023-04-16T11:13:32.678Z,28.88
2023-04-16T11:14:32.675Z,28.91
2023-04-16T11:15:32.683Z,28.88
2023-04-16T11:16:32.686Z,28.95
2023-04-16T11:17:32.685Z,28.90
2023-04-16T11:18:32.664Z,28.94
2023-04-16T11:19:32.644Z,28.91
2023-04-16T11:20:32.646Z,28.95
2023-04-16T11:21:32.667Z,28.89
2023-04-16T11:22:32.636Z,28.88
2023-04-16T11:23:32.635Z,28.88
2023-04-16T11:24:32.630Z,28.89
2023-04-16T11:25:32.654Z,28.87
2023-04-16T11:26:32.623Z,28.89
2023-04-16T11:27:32.631Z,28.89
2023-04-16T11:28:32.626Z,28.87
2023-04-16T11:29:32.625Z,28.92
2023-04-16T11:30:32.609Z,28.92
2023-04-16T11:31:32.634Z,28.91
2023-04-16T11:32:32.665Z,28.91
2023-04-16T11:33:32.866Z,28.87
2023-04-16T11:34:32.598Z,28.88
2023-04-16T11:35:32.600Z,28.92
2023-04-16T11:36:32.601Z,28.88
2023-04-16T11:37:32.608Z,28.89
2023-04-16T11:38:32.613Z,28.91
2023-04-16T11:39:32.602Z,28.81
2023-04-16T11:40:32.648Z,28.88
2023-04-16T11:41:32.758Z,28.88
2023-04-16T11:42:32.805Z,28.86
2023-04-16T11:43:32.850Z,28.85
2023-04-16T11:44:32.930Z,28.88
2023-04-16T11:45:32.991Z,28.87
2023-04-16T11:46:33.111Z,28.86
2023-04-16T11:47:33.252Z,28.84
2023-04-16T11:48:33.680Z,28.87
2023-04-16T11:49:33.277Z,28.84
2023-04-16T11:50:33.350Z,28.82
2023-04-16T11:51:33.414Z,28.87
2023-04-16T11:52:33.465Z,28.83
2023-04-16T11:53:33.935Z,28.82
2023-04-16T11:54:33.994Z,28.84
2023-04-16T11:55:33.665Z,28.79
2023-04-16T11:56:33.725Z,28.79
2023-04-16T11:57:33.919Z,28.85
2023-04-16T11:58:33.837Z,28.82
2023-04-16T11:59:33.904Z,28.79
2023-04-16T12:00:33.963Z,28.80
2023-04-16T12:01:34.028Z,28.82
2023-04-16T12:02:34.184Z,28.80
2023-04-16T12:03:34.277Z,28.85
2023-04-16T12:04:34.214Z,28.82
2023-04-16T12:05:34.267Z,28.79
2023-04-16T12:06:34.323Z,28.83
2023-04-16T12:07:34.379Z,28.85
2023-04-16T12:08:34.444Z,28.80
2023-04-16T12:09:34.506Z,28.82
2023-04-16T12:10:34.555Z,28.80
2023-04-16T12:11:34.613Z,28.80
2023-04-16T12:12:34.997Z,28.75
2023-04-16T12:13:34.752Z,28.82
2023-04-16T12:14:34.767Z,28.76
2023-04-16T12:15:34.831Z,28.80
2023-04-16T12:16:35.839Z,28.82
2023-04-16T12:17:35.437Z,28.82
2023-04-16T12:18:35.027Z,28.79
2023-04-16T12:19:35.093Z,28.79
2023-04-16T12:20:35.157Z,28.78
2023-04-16T12:21:35.517Z,28.76
2023-04-16T12:22:36.770Z,28.75
2023-04-16T12:23:35.282Z,28.76
2023-04-16T12:24:35.270Z,28.78
2023-04-16T12:25:35.275Z,28.79
2023-04-16T12:26:35.865Z,28.76
2023-04-16T12:27:35.296Z,28.75
2023-04-16T12:28:35.296Z,28.81
2023-04-16T12:29:35.324Z,28.79
2023-04-16T12:30:35.302Z,28.78
2023-04-16T12:31:35.293Z,28.79
2023-04-16T12:32:35.322Z,28.81
2023-04-16T12:33:35.312Z,28.77
2023-04-16T12:34:48.755Z,28.81
2023-04-16T12:35:36.246Z,28.79
2023-04-16T12:36:35.310Z,28.80
2023-04-16T12:37:35.308Z,28.78
2023-04-16T12:38:35.311Z,28.76
2023-04-16T12:39:35.309Z,28.79
2023-04-16T12:40:35.305Z,28.79
2023-04-16T12:41:35.306Z,28.76
2023-04-16T12:42:35.313Z,28.79
2023-04-16T12:43:35.300Z,28.81
2023-04-16T12:44:35.309Z,28.79
2023-04-16T12:45:35.324Z,28.85
2023-04-16T12:46:35.322Z,28.78
2023-04-16T12:47:35.305Z,28.85
2023-04-16T12:48:35.306Z,28.85
2023-04-16T12:49:35.280Z,28.82
2023-04-16T12:50:35.269Z,28.82
2023-04-16T12:51:35.268Z,28.79
2023-04-16T12:52:35.265Z,28.79
2023-04-16T12:53:35.262Z,28.82